sensor_id;sensor_type;location;lat;lon;timestamp;P1;durP1;ratioP1;P2;durP2;ratioP2
32297;SDS011;18782;48.984;8.548;2023-07-29T00:02:39;0.80;;;0.55;;
32297;SDS011;18782;48.984;8.548;2023-07-29T00:05:07;3.17;;;0.65;;
32297;SDS011;18782;48.984;8.548;2023-07-29T00:07:35;1.73;;;0.60;;
32297;SDS011;18782;48.984;8.548;2023-07-29T00:10:02;0.90;;;0.50;;
32297;SDS011;18782;48.984;8.548;2023-07-29T00:12:31;1.92;;;0.60;;
32297;SDS011;18782;48.984;8.548;2023-07-29T00:14:58;2.55;;;0.70;;
32297;SDS011;18782;48.984;8.548;2023-07-29T00:17:27;2.28;;;0.63;;
32297;SDS011;18782;48.984;8.548;2023-07-29T00:19:56;0.88;;;0.50;;
32297;SDS011;18782;48.984;8.548;2023-07-29T00:22:24;3.13;;;0.70;;
32297;SDS011;18782;48.984;8.548;2023-07-29T00:24:51;1.42;;;0.68;;
32297;SDS011;18782;48.984;8.548;2023-07-29T00:27:21;1.42;;;0.50;;
32297;SDS011;18782;48.984;8.548;2023-07-29T00:29:48;2.80;;;0.68;;
32297;SDS011;18782;48.984;8.548;2023-07-29T00:32:16;2.50;;;1.00;;
32297;SDS011;18782;48.984;8.548;2023-07-29T00:34:44;3.78;;;0.70;;
32297;SDS011;18782;48.984;8.548;2023-07-29T00:37:13;1.42;;;0.50;;
32297;SDS011;18782;48.984;8.548;2023-07-29T00:39:44;6.70;;;1.38;;
32297;SDS011;18782;48.984;8.548;2023-07-29T00:42:12;3.15;;;0.60;;
32297;SDS011;18782;48.984;8.548;2023-07-29T00:44:40;2.55;;;0.70;;
32297;SDS011;18782;48.984;8.548;2023-07-29T00:47:08;1.88;;;0.60;;
32297;SDS011;18782;48.984;8.548;2023-07-29T00:49:37;1.95;;;0.47;;
32297;SDS011;18782;48.984;8.548;2023-07-29T00:52:04;2.15;;;0.55;;
32297;SDS011;18782;48.984;8.548;2023-07-29T00:54:34;1.40;;;0.60;;
32297;SDS011;18782;48.984;8.548;2023-07-29T00:57:02;2.30;;;0.80;;
32297;SDS011;18782;48.984;8.548;2023-07-29T00:59:30;1.42;;;0.52;;
32297;SDS011;18782;48.984;8.548;2023-07-29T01:02:00;5.07;;;0.80;;
32297;SDS011;18782;48.984;8.548;2023-07-29T01:04:29;1.85;;;0.60;;
32297;SDS011;18782;48.984;8.548;2023-07-29T01:06:58;2.08;;;0.88;;
32297;SDS011;18782;48.984;8.548;2023-07-29T01:09:36;1.55;;;0.80;;
32297;SDS011;18782;48.984;8.548;2023-07-29T01:12:12;1.80;;;0.63;;
32297;SDS011;18782;48.984;8.548;2023-07-29T01:14:51;3.40;;;0.63;;
32297;SDS011;18782;48.984;8.548;2023-07-29T01:17:28;2.03;;;0.57;;
32297;SDS011;18782;48.984;8.548;2023-07-29T01:20:00;2.70;;;0.60;;
32297;SDS011;18782;48.984;8.548;2023-07-29T01:22:32;2.80;;;0.70;;
32297;SDS011;18782;48.984;8.548;2023-07-29T01:25:02;2.42;;;0.60;;
32297;SDS011;18782;48.984;8.548;2023-07-29T01:27:31;4.47;;;0.70;;
32297;SDS011;18782;48.984;8.548;2023-07-29T01:29:59;2.42;;;0.70;;
32297;SDS011;18782;48.984;8.548;2023-07-29T01:32:31;1.17;;;0.43;;
32297;SDS011;18782;48.984;8.548;2023-07-29T01:35:07;1.58;;;0.70;;
32297;SDS011;18782;48.984;8.548;2023-07-29T01:37:43;4.57;;;0.70;;
32297;SDS011;18782;48.984;8.548;2023-07-29T01:40:15;1.00;;;0.80;;
32297;SDS011;18782;48.984;8.548;2023-07-29T01:42:44;1.77;;;0.60;;
32297;SDS011;18782;48.984;8.548;2023-07-29T01:45:12;2.38;;;0.60;;
32297;SDS011;18782;48.984;8.548;2023-07-29T01:47:40;4.50;;;0.95;;
32297;SDS011;18782;48.984;8.548;2023-07-29T01:50:08;1.77;;;0.50;;
32297;SDS011;18782;48.984;8.548;2023-07-29T01:52:36;5.43;;;1.05;;
32297;SDS011;18782;48.984;8.548;2023-07-29T01:55:04;6.40;;;0.82;;
32297;SDS011;18782;48.984;8.548;2023-07-29T01:57:34;0.90;;;0.60;;
32297;SDS011;18782;48.984;8.548;2023-07-29T02:00:01;2.58;;;0.70;;
32297;SDS011;18782;48.984;8.548;2023-07-29T02:02:39;2.03;;;1.10;;
32297;SDS011;18782;48.984;8.548;2023-07-29T02:05:07;4.18;;;0.88;;
32297;SDS011;18782;48.984;8.548;2023-07-29T02:07:35;1.88;;;0.70;;
32297;SDS011;18782;48.984;8.548;2023-07-29T02:10:03;1.75;;;0.70;;
32297;SDS011;18782;48.984;8.548;2023-07-29T02:12:31;3.60;;;0.80;;
32297;SDS011;18782;48.984;8.548;2023-07-29T02:15:01;1.25;;;0.73;;
32297;SDS011;18782;48.984;8.548;2023-07-29T02:17:29;2.22;;;0.80;;
32297;SDS011;18782;48.984;8.548;2023-07-29T02:19:57;1.65;;;0.80;;
32297;SDS011;18782;48.984;8.548;2023-07-29T02:22:25;1.38;;;0.45;;
32297;SDS011;18782;48.984;8.548;2023-07-29T02:24:53;3.15;;;0.80;;
32297;SDS011;18782;48.984;8.548;2023-07-29T02:27:21;3.78;;;0.80;;
32297;SDS011;18782;48.984;8.548;2023-07-29T02:29:49;1.40;;;0.50;;
32297;SDS011;18782;48.984;8.548;2023-07-29T02:32:18;1.83;;;0.60;;
32297;SDS011;18782;48.984;8.548;2023-07-29T02:34:46;0.82;;;0.60;;
32297;SDS011;18782;48.984;8.548;2023-07-29T02:37:14;1.60;;;0.90;;
32297;SDS011;18782;48.984;8.548;2023-07-29T02:39:43;1.00;;;0.60;;
32297;SDS011;18782;48.984;8.548;2023-07-29T02:42:10;2.05;;;0.70;;
32297;SDS011;18782;48.984;8.548;2023-07-29T02:44:38;1.27;;;0.60;;
32297;SDS011;18782;48.984;8.548;2023-07-29T02:47:07;3.72;;;0.75;;
32297;SDS011;18782;48.984;8.548;2023-07-29T02:49:36;3.53;;;0.70;;
32297;SDS011;18782;48.984;8.548;2023-07-29T02:52:04;3.40;;;2.50;;
32297;SDS011;18782;48.984;8.548;2023-07-29T02:54:32;4.20;;;1.80;;
32297;SDS011;18782;48.984;8.548;2023-07-29T02:57:00;1.90;;;0.77;;
32297;SDS011;18782;48.984;8.548;2023-07-29T02:59:28;1.27;;;0.68;;
32297;SDS011;18782;48.984;8.548;2023-07-29T03:01:55;2.85;;;0.85;;
32297;SDS011;18782;48.984;8.548;2023-07-29T03:04:23;2.20;;;0.90;;
32297;SDS011;18782;48.984;8.548;2023-07-29T03:06:52;1.80;;;0.93;;
32297;SDS011;18782;48.984;8.548;2023-07-29T03:09:20;0.82;;;0.55;;
32297;SDS011;18782;48.984;8.548;2023-07-29T03:11:48;1.00;;;0.60;;
32297;SDS011;18782;48.984;8.548;2023-07-29T03:14:15;4.20;;;0.88;;
32297;SDS011;18782;48.984;8.548;2023-07-29T03:16:43;0.85;;;0.70;;
32297;SDS011;18782;48.984;8.548;2023-07-29T03:19:11;2.20;;;1.42;;
32297;SDS011;18782;48.984;8.548;2023-07-29T03:21:39;1.40;;;0.60;;
32297;SDS011;18782;48.984;8.548;2023-07-29T03:24:08;3.33;;;1.42;;
32297;SDS011;18782;48.984;8.548;2023-07-29T03:26:36;3.78;;;1.98;;
32297;SDS011;18782;48.984;8.548;2023-07-29T03:29:04;2.38;;;0.98;;
32297;SDS011;18782;48.984;8.548;2023-07-29T03:31:32;2.90;;;1.00;;
32297;SDS011;18782;48.984;8.548;2023-07-29T03:36:45;1.15;;;0.90;;
32297;SDS011;18782;48.984;8.548;2023-07-29T03:39:15;1.67;;;0.57;;
32297;SDS011;18782;48.984;8.548;2023-07-29T03:41:44;2.15;;;0.68;;
32297;SDS011;18782;48.984;8.548;2023-07-29T03:44:11;3.25;;;0.60;;
32297;SDS011;18782;48.984;8.548;2023-07-29T03:46:39;1.75;;;0.65;;
32297;SDS011;18782;48.984;8.548;2023-07-29T03:49:08;1.00;;;0.70;;
32297;SDS011;18782;48.984;8.548;2023-07-29T03:51:36;1.40;;;0.52;;
32297;SDS011;18782;48.984;8.548;2023-07-29T03:54:04;1.02;;;0.60;;
32297;SDS011;18782;48.984;8.548;2023-07-29T03:56:33;1.88;;;0.73;;
32297;SDS011;18782;48.984;8.548;2023-07-29T03:59:03;2.25;;;0.75;;
32297;SDS011;18782;48.984;8.548;2023-07-29T04:01:32;4.93;;;0.70;;
32297;SDS011;18782;48.984;8.548;2023-07-29T04:04:00;1.77;;;0.50;;
32297;SDS011;18782;48.984;8.548;2023-07-29T04:06:28;1.17;;;0.60;;
32297;SDS011;18782;48.984;8.548;2023-07-29T04:08:56;2.53;;;1.13;;
32297;SDS011;18782;48.984;8.548;2023-07-29T04:11:24;2.42;;;0.70;;
32297;SDS011;18782;48.984;8.548;2023-07-29T04:13:53;1.67;;;0.60;;
32297;SDS011;18782;48.984;8.548;2023-07-29T04:16:21;3.55;;;1.00;;
32297;SDS011;18782;48.984;8.548;2023-07-29T04:18:49;2.95;;;0.60;;
32297;SDS011;18782;48.984;8.548;2023-07-29T04:21:17;1.48;;;0.75;;
32297;SDS011;18782;48.984;8.548;2023-07-29T04:23:44;2.15;;;0.88;;
32297;SDS011;18782;48.984;8.548;2023-07-29T04:26:12;1.40;;;0.80;;
32297;SDS011;18782;48.984;8.548;2023-07-29T04:28:40;1.63;;;0.60;;
32297;SDS011;18782;48.984;8.548;2023-07-29T04:31:09;1.50;;;0.70;;
32297;SDS011;18782;48.984;8.548;2023-07-29T04:33:37;3.83;;;0.85;;
32297;SDS011;18782;48.984;8.548;2023-07-29T04:36:04;1.30;;;0.60;;
32297;SDS011;18782;48.984;8.548;2023-07-29T04:38:32;2.65;;;0.75;;
32297;SDS011;18782;48.984;8.548;2023-07-29T04:41:01;2.20;;;0.63;;
32297;SDS011;18782;48.984;8.548;2023-07-29T04:43:30;0.75;;;0.57;;
32297;SDS011;18782;48.984;8.548;2023-07-29T04:45:58;2.55;;;0.70;;
32297;SDS011;18782;48.984;8.548;2023-07-29T04:48:28;2.70;;;0.50;;
32297;SDS011;18782;48.984;8.548;2023-07-29T04:50:56;1.52;;;0.90;;
32297;SDS011;18782;48.984;8.548;2023-07-29T04:53:24;4.38;;;2.75;;
32297;SDS011;18782;48.984;8.548;2023-07-29T04:55:52;1.70;;;1.00;;
32297;SDS011;18782;48.984;8.548;2023-07-29T04:58:19;5.28;;;0.85;;
32297;SDS011;18782;48.984;8.548;2023-07-29T05:00:47;2.13;;;0.80;;
32297;SDS011;18782;48.984;8.548;2023-07-29T05:03:15;1.42;;;0.77;;
32297;SDS011;18782;48.984;8.548;2023-07-29T05:05:44;2.90;;;0.80;;
32297;SDS011;18782;48.984;8.548;2023-07-29T05:08:12;1.60;;;0.80;;
32297;SDS011;18782;48.984;8.548;2023-07-29T05:10:40;4.60;;;1.42;;
32297;SDS011;18782;48.984;8.548;2023-07-29T05:13:07;2.45;;;1.00;;
32297;SDS011;18782;48.984;8.548;2023-07-29T05:15:35;2.20;;;0.80;;
32297;SDS011;18782;48.984;8.548;2023-07-29T05:18:03;1.67;;;0.65;;
32297;SDS011;18782;48.984;8.548;2023-07-29T05:20:31;1.52;;;0.50;;
32297;SDS011;18782;48.984;8.548;2023-07-29T05:23:00;2.78;;;0.77;;
32297;SDS011;18782;48.984;8.548;2023-07-29T05:25:28;2.42;;;0.80;;
32297;SDS011;18782;48.984;8.548;2023-07-29T05:27:56;1.83;;;1.10;;
32297;SDS011;18782;48.984;8.548;2023-07-29T05:30:24;2.05;;;0.82;;
32297;SDS011;18782;48.984;8.548;2023-07-29T05:32:53;2.13;;;0.80;;
32297;SDS011;18782;48.984;8.548;2023-07-29T05:35:21;3.22;;;0.90;;
32297;SDS011;18782;48.984;8.548;2023-07-29T05:37:49;1.75;;;0.70;;
32297;SDS011;18782;48.984;8.548;2023-07-29T05:40:18;3.20;;;1.05;;
32297;SDS011;18782;48.984;8.548;2023-07-29T05:42:46;2.47;;;0.90;;
32297;SDS011;18782;48.984;8.548;2023-07-29T05:45:14;1.00;;;0.57;;
32297;SDS011;18782;48.984;8.548;2023-07-29T05:47:42;1.95;;;0.70;;
32297;SDS011;18782;48.984;8.548;2023-07-29T05:50:10;2.63;;;1.00;;
32297;SDS011;18782;48.984;8.548;2023-07-29T05:52:39;2.03;;;1.02;;
32297;SDS011;18782;48.984;8.548;2023-07-29T05:55:07;3.15;;;1.17;;
32297;SDS011;18782;48.984;8.548;2023-07-29T05:57:37;5.43;;;3.80;;
32297;SDS011;18782;48.984;8.548;2023-07-29T06:00:08;7.53;;;5.13;;
32297;SDS011;18782;48.984;8.548;2023-07-29T06:02:40;5.65;;;2.20;;
32297;SDS011;18782;48.984;8.548;2023-07-29T06:05:12;4.18;;;2.50;;
32297;SDS011;18782;48.984;8.548;2023-07-29T06:07:41;2.85;;;2.15;;
32297;SDS011;18782;48.984;8.548;2023-07-29T06:10:12;3.88;;;2.38;;
32297;SDS011;18782;48.984;8.548;2023-07-29T06:15:13;4.25;;;3.83;;
32297;SDS011;18782;48.984;8.548;2023-07-29T06:17:41;2.70;;;1.77;;
32297;SDS011;18782;48.984;8.548;2023-07-29T06:20:09;3.92;;;2.97;;
32297;SDS011;18782;48.984;8.548;2023-07-29T06:22:37;3.30;;;1.83;;
32297;SDS011;18782;48.984;8.548;2023-07-29T06:25:05;3.22;;;1.40;;
32297;SDS011;18782;48.984;8.548;2023-07-29T06:27:33;4.43;;;2.00;;
32297;SDS011;18782;48.984;8.548;2023-07-29T06:30:02;4.43;;;2.75;;
32297;SDS011;18782;48.984;8.548;2023-07-29T06:32:30;4.55;;;2.20;;
32297;SDS011;18782;48.984;8.548;2023-07-29T06:34:58;3.75;;;2.00;;
32297;SDS011;18782;48.984;8.548;2023-07-29T06:37:26;7.45;;;2.13;;
32297;SDS011;18782;48.984;8.548;2023-07-29T06:39:54;2.65;;;1.20;;
32297;SDS011;18782;48.984;8.548;2023-07-29T06:42:21;2.13;;;1.10;;
32297;SDS011;18782;48.984;8.548;2023-07-29T06:44:49;3.45;;;1.00;;
32297;SDS011;18782;48.984;8.548;2023-07-29T06:47:18;5.15;;;1.73;;
32297;SDS011;18782;48.984;8.548;2023-07-29T06:49:46;5.40;;;2.00;;
32297;SDS011;18782;48.984;8.548;2023-07-29T06:52:13;4.07;;;2.45;;
32297;SDS011;18782;48.984;8.548;2023-07-29T06:54:41;3.72;;;1.70;;
32297;SDS011;18782;48.984;8.548;2023-07-29T06:57:09;1.95;;;1.10;;
32297;SDS011;18782;48.984;8.548;2023-07-29T06:59:36;2.95;;;0.90;;
32297;SDS011;18782;48.984;8.548;2023-07-29T07:02:05;1.92;;;1.00;;
32297;SDS011;18782;48.984;8.548;2023-07-29T07:04:35;2.08;;;1.20;;
32297;SDS011;18782;48.984;8.548;2023-07-29T07:07:03;2.22;;;1.20;;
32297;SDS011;18782;48.984;8.548;2023-07-29T07:09:31;2.15;;;1.17;;
32297;SDS011;18782;48.984;8.548;2023-07-29T07:11:59;1.92;;;0.85;;
32297;SDS011;18782;48.984;8.548;2023-07-29T07:14:26;2.00;;;0.90;;
32297;SDS011;18782;48.984;8.548;2023-07-29T07:16:54;3.78;;;0.80;;
32297;SDS011;18782;48.984;8.548;2023-07-29T07:19:22;0.95;;;0.77;;
32297;SDS011;18782;48.984;8.548;2023-07-29T07:21:51;2.20;;;1.10;;
32297;SDS011;18782;48.984;8.548;2023-07-29T07:24:18;1.35;;;0.65;;
32297;SDS011;18782;48.984;8.548;2023-07-29T07:26:46;1.17;;;0.60;;
32297;SDS011;18782;48.984;8.548;2023-07-29T07:29:14;1.67;;;0.63;;
32297;SDS011;18782;48.984;8.548;2023-07-29T07:31:47;1.50;;;0.70;;
32297;SDS011;18782;48.984;8.548;2023-07-29T07:34:17;1.52;;;0.75;;
32297;SDS011;18782;48.984;8.548;2023-07-29T07:36:45;1.38;;;0.73;;
32297;SDS011;18782;48.984;8.548;2023-07-29T07:39:14;1.73;;;0.70;;
32297;SDS011;18782;48.984;8.548;2023-07-29T07:41:42;1.75;;;0.73;;
32297;SDS011;18782;48.984;8.548;2023-07-29T07:44:10;3.00;;;1.55;;
32297;SDS011;18782;48.984;8.548;2023-07-29T07:46:41;0.90;;;0.52;;
32297;SDS011;18782;48.984;8.548;2023-07-29T07:49:09;0.75;;;0.40;;
32297;SDS011;18782;48.984;8.548;2023-07-29T07:51:36;1.05;;;0.60;;
32297;SDS011;18782;48.984;8.548;2023-07-29T07:54:04;0.93;;;0.60;;
32297;SDS011;18782;48.984;8.548;2023-07-29T07:56:34;0.90;;;0.50;;
32297;SDS011;18782;48.984;8.548;2023-07-29T07:59:02;4.43;;;0.70;;
32297;SDS011;18782;48.984;8.548;2023-07-29T08:01:33;2.67;;;1.25;;
32297;SDS011;18782;48.984;8.548;2023-07-29T08:06:31;1.13;;;0.50;;
32297;SDS011;18782;48.984;8.548;2023-07-29T08:08:59;1.13;;;0.77;;
32297;SDS011;18782;48.984;8.548;2023-07-29T08:11:27;1.42;;;0.60;;
32297;SDS011;18782;48.984;8.548;2023-07-29T08:13:56;1.02;;;0.60;;
32297;SDS011;18782;48.984;8.548;2023-07-29T08:16:25;1.98;;;0.77;;
32297;SDS011;18782;48.984;8.548;2023-07-29T08:18:53;1.48;;;0.50;;
32297;SDS011;18782;48.984;8.548;2023-07-29T08:21:20;2.78;;;0.85;;
32297;SDS011;18782;48.984;8.548;2023-07-29T08:23:48;1.50;;;0.90;;
32297;SDS011;18782;48.984;8.548;2023-07-29T08:26:16;2.03;;;0.63;;
32297;SDS011;18782;48.984;8.548;2023-07-29T08:28:44;0.98;;;0.47;;
32297;SDS011;18782;48.984;8.548;2023-07-29T08:31:13;1.65;;;0.50;;
32297;SDS011;18782;48.984;8.548;2023-07-29T08:33:41;0.63;;;0.40;;
32297;SDS011;18782;48.984;8.548;2023-07-29T08:36:08;0.52;;;0.35;;
32297;SDS011;18782;48.984;8.548;2023-07-29T08:38:36;1.05;;;0.45;;
32297;SDS011;18782;48.984;8.548;2023-07-29T08:41:06;1.67;;;0.70;;
32297;SDS011;18782;48.984;8.548;2023-07-29T08:43:42;0.90;;;0.50;;
32297;SDS011;18782;48.984;8.548;2023-07-29T08:46:17;0.95;;;0.60;;
32297;SDS011;18782;48.984;8.548;2023-07-29T08:48:46;2.95;;;0.80;;
32297;SDS011;18782;48.984;8.548;2023-07-29T08:51:14;5.07;;;2.08;;
32297;SDS011;18782;48.984;8.548;2023-07-29T08:53:44;3.70;;;0.80;;
32297;SDS011;18782;48.984;8.548;2023-07-29T08:56:12;1.45;;;0.70;;
32297;SDS011;18782;48.984;8.548;2023-07-29T08:58:40;2.42;;;0.90;;
32297;SDS011;18782;48.984;8.548;2023-07-29T09:01:09;0.90;;;0.52;;
32297;SDS011;18782;48.984;8.548;2023-07-29T09:03:38;3.17;;;0.82;;
32297;SDS011;18782;48.984;8.548;2023-07-29T09:06:06;1.40;;;0.70;;
32297;SDS011;18782;48.984;8.548;2023-07-29T09:08:34;5.93;;;1.70;;
32297;SDS011;18782;48.984;8.548;2023-07-29T09:11:04;1.33;;;0.70;;
32297;SDS011;18782;48.984;8.548;2023-07-29T09:13:33;1.88;;;0.60;;
32297;SDS011;18782;48.984;8.548;2023-07-29T09:16:01;3.47;;;0.70;;
32297;SDS011;18782;48.984;8.548;2023-07-29T09:18:29;1.30;;;0.60;;
32297;SDS011;18782;48.984;8.548;2023-07-29T09:20:59;2.10;;;0.80;;
32297;SDS011;18782;48.984;8.548;2023-07-29T09:23:28;2.05;;;0.60;;
32297;SDS011;18782;48.984;8.548;2023-07-29T09:26:00;2.50;;;0.70;;
32297;SDS011;18782;48.984;8.548;2023-07-29T09:28:32;1.25;;;0.73;;
32297;SDS011;18782;48.984;8.548;2023-07-29T09:31:01;2.42;;;0.93;;
32297;SDS011;18782;48.984;8.548;2023-07-29T09:33:29;1.02;;;0.60;;
32297;SDS011;18782;48.984;8.548;2023-07-29T09:36:00;1.80;;;1.45;;
32297;SDS011;18782;48.984;8.548;2023-07-29T09:38:27;0.90;;;0.68;;
32297;SDS011;18782;48.984;8.548;2023-07-29T09:40:56;1.05;;;0.60;;
32297;SDS011;18782;48.984;8.548;2023-07-29T09:43:25;1.15;;;0.70;;
32297;SDS011;18782;48.984;8.548;2023-07-29T09:45:56;1.08;;;0.60;;
32297;SDS011;18782;48.984;8.548;2023-07-29T09:48:28;2.85;;;1.40;;
32297;SDS011;18782;48.984;8.548;2023-07-29T09:51:01;1.77;;;0.63;;
32297;SDS011;18782;48.984;8.548;2023-07-29T09:53:39;1.65;;;0.95;;
32297;SDS011;18782;48.984;8.548;2023-07-29T09:56:11;1.40;;;0.80;;
32297;SDS011;18782;48.984;8.548;2023-07-29T09:58:39;3.05;;;0.60;;
32297;SDS011;18782;48.984;8.548;2023-07-29T10:01:09;2.40;;;0.98;;
32297;SDS011;18782;48.984;8.548;2023-07-29T10:03:37;2.10;;;0.70;;
32297;SDS011;18782;48.984;8.548;2023-07-29T10:06:07;1.05;;;0.68;;
32297;SDS011;18782;48.984;8.548;2023-07-29T10:08:35;0.80;;;0.50;;
32297;SDS011;18782;48.984;8.548;2023-07-29T10:11:05;1.60;;;0.73;;
32297;SDS011;18782;48.984;8.548;2023-07-29T10:13:34;2.58;;;0.70;;
32297;SDS011;18782;48.984;8.548;2023-07-29T10:16:03;2.28;;;0.77;;
32297;SDS011;18782;48.984;8.548;2023-07-29T10:18:32;2.28;;;0.57;;
32297;SDS011;18782;48.984;8.548;2023-07-29T10:21:01;1.55;;;0.55;;
32297;SDS011;18782;48.984;8.548;2023-07-29T10:23:40;1.20;;;0.40;;
32297;SDS011;18782;48.984;8.548;2023-07-29T10:26:10;2.38;;;0.60;;
32297;SDS011;18782;48.984;8.548;2023-07-29T10:28:40;0.90;;;0.57;;
32297;SDS011;18782;48.984;8.548;2023-07-29T10:31:12;2.40;;;0.77;;
32297;SDS011;18782;48.984;8.548;2023-07-29T10:33:42;1.85;;;1.25;;
32297;SDS011;18782;48.984;8.548;2023-07-29T10:36:11;2.13;;;0.80;;
32297;SDS011;18782;48.984;8.548;2023-07-29T10:38:41;0.55;;;0.47;;
32297;SDS011;18782;48.984;8.548;2023-07-29T10:41:09;2.17;;;0.40;;
32297;SDS011;18782;48.984;8.548;2023-07-29T10:43:37;1.00;;;0.60;;
32297;SDS011;18782;48.984;8.548;2023-07-29T10:46:14;2.53;;;0.70;;
32297;SDS011;18782;48.984;8.548;2023-07-29T10:48:44;0.90;;;0.65;;
32297;SDS011;18782;48.984;8.548;2023-07-29T10:51:23;0.57;;;0.40;;
32297;SDS011;18782;48.984;8.548;2023-07-29T10:53:53;1.45;;;0.65;;
32297;SDS011;18782;48.984;8.548;2023-07-29T10:56:26;3.25;;;2.17;;
32297;SDS011;18782;48.984;8.548;2023-07-29T10:58:55;0.90;;;0.40;;
32297;SDS011;18782;48.984;8.548;2023-07-29T11:01:28;1.27;;;0.50;;
32297;SDS011;18782;48.984;8.548;2023-07-29T11:09:57;0.80;;;0.40;;
32297;SDS011;18782;48.984;8.548;2023-07-29T11:12:37;1.63;;;0.32;;
32297;SDS011;18782;48.984;8.548;2023-07-29T11:15:12;0.75;;;0.40;;
32297;SDS011;18782;48.984;8.548;2023-07-29T11:17:48;2.65;;;0.60;;
32297;SDS011;18782;48.984;8.548;2023-07-29T11:20:17;1.75;;;0.47;;
32297;SDS011;18782;48.984;8.548;2023-07-29T11:22:46;1.23;;;0.40;;
32297;SDS011;18782;48.984;8.548;2023-07-29T11:25:16;0.70;;;0.45;;
32297;SDS011;18782;48.984;8.548;2023-07-29T11:27:45;0.52;;;0.32;;
32297;SDS011;18782;48.984;8.548;2023-07-29T11:30:14;0.70;;;0.40;;
32297;SDS011;18782;48.984;8.548;2023-07-29T11:32:43;1.35;;;0.45;;
32297;SDS011;18782;48.984;8.548;2023-07-29T11:35:12;1.20;;;0.60;;
32297;SDS011;18782;48.984;8.548;2023-07-29T11:37:44;0.85;;;0.47;;
32297;SDS011;18782;48.984;8.548;2023-07-29T11:40:15;1.05;;;0.50;;
32297;SDS011;18782;48.984;8.548;2023-07-29T11:42:44;0.80;;;0.50;;
32297;SDS011;18782;48.984;8.548;2023-07-29T11:45:13;0.82;;;0.50;;
32297;SDS011;18782;48.984;8.548;2023-07-29T11:47:44;1.20;;;0.70;;
32297;SDS011;18782;48.984;8.548;2023-07-29T11:50:12;0.90;;;0.52;;
32297;SDS011;18782;48.984;8.548;2023-07-29T11:52:41;0.90;;;0.70;;
32297;SDS011;18782;48.984;8.548;2023-07-29T11:55:11;1.45;;;0.80;;
32297;SDS011;18782;48.984;8.548;2023-07-29T11:57:42;1.20;;;0.80;;
32297;SDS011;18782;48.984;8.548;2023-07-29T12:00:10;0.88;;;0.60;;
32297;SDS011;18782;48.984;8.548;2023-07-29T12:02:43;1.55;;;0.70;;
32297;SDS011;18782;48.984;8.548;2023-07-29T12:05:13;1.10;;;0.70;;
32297;SDS011;18782;48.984;8.548;2023-07-29T12:07:42;1.02;;;0.45;;
32297;SDS011;18782;48.984;8.548;2023-07-29T12:10:11;0.88;;;0.50;;
32297;SDS011;18782;48.984;8.548;2023-07-29T12:12:42;1.02;;;0.52;;
32297;SDS011;18782;48.984;8.548;2023-07-29T12:15:12;1.00;;;0.60;;
32297;SDS011;18782;48.984;8.548;2023-07-29T12:17:40;1.08;;;0.60;;
32297;SDS011;18782;48.984;8.548;2023-07-29T12:20:09;1.42;;;1.20;;
32297;SDS011;18782;48.984;8.548;2023-07-29T12:22:37;1.30;;;0.82;;
32297;SDS011;18782;48.984;8.548;2023-07-29T12:25:05;1.55;;;0.70;;
32297;SDS011;18782;48.984;8.548;2023-07-29T12:27:33;1.92;;;0.82;;
32297;SDS011;18782;48.984;8.548;2023-07-29T12:30:02;1.45;;;0.70;;
32297;SDS011;18782;48.984;8.548;2023-07-29T12:32:31;1.10;;;0.73;;
32297;SDS011;18782;48.984;8.548;2023-07-29T12:34:58;0.82;;;0.70;;
32297;SDS011;18782;48.984;8.548;2023-07-29T12:37:30;2.05;;;0.63;;
32297;SDS011;18782;48.984;8.548;2023-07-29T12:39:59;1.20;;;0.70;;
32297;SDS011;18782;48.984;8.548;2023-07-29T12:42:27;1.20;;;0.70;;
32297;SDS011;18782;48.984;8.548;2023-07-29T12:44:55;4.00;;;2.22;;
32297;SDS011;18782;48.984;8.548;2023-07-29T12:47:24;1.10;;;0.60;;
32297;SDS011;18782;48.984;8.548;2023-07-29T12:49:52;1.65;;;0.70;;
32297;SDS011;18782;48.984;8.548;2023-07-29T12:52:19;1.45;;;0.52;;
32297;SDS011;18782;48.984;8.548;2023-07-29T12:54:47;1.65;;;0.70;;
32297;SDS011;18782;48.984;8.548;2023-07-29T12:57:15;1.15;;;0.70;;
32297;SDS011;18782;48.984;8.548;2023-07-29T12:59:42;0.80;;;0.57;;
32297;SDS011;18782;48.984;8.548;2023-07-29T13:02:10;1.55;;;0.80;;
32297;SDS011;18782;48.984;8.548;2023-07-29T13:04:39;2.25;;;0.82;;
32297;SDS011;18782;48.984;8.548;2023-07-29T13:07:07;2.33;;;0.70;;
32297;SDS011;18782;48.984;8.548;2023-07-29T13:09:34;1.15;;;0.68;;
32297;SDS011;18782;48.984;8.548;2023-07-29T13:12:02;0.90;;;0.70;;
32297;SDS011;18782;48.984;8.548;2023-07-29T13:14:30;0.55;;;0.40;;
32297;SDS011;18782;48.984;8.548;2023-07-29T13:16:58;1.67;;;0.68;;
32297;SDS011;18782;48.984;8.548;2023-07-29T13:19:26;2.65;;;0.70;;
32297;SDS011;18782;48.984;8.548;2023-07-29T13:21:55;1.75;;;0.82;;
32297;SDS011;18782;48.984;8.548;2023-07-29T13:24:23;1.80;;;0.80;;
32297;SDS011;18782;48.984;8.548;2023-07-29T13:26:50;0.60;;;0.60;;
32297;SDS011;18782;48.984;8.548;2023-07-29T13:29:18;0.90;;;0.60;;
32297;SDS011;18782;48.984;8.548;2023-07-29T13:31:46;3.22;;;0.57;;
32297;SDS011;18782;48.984;8.548;2023-07-29T13:34:13;1.83;;;0.70;;
32297;SDS011;18782;48.984;8.548;2023-07-29T13:36:41;1.65;;;0.60;;
32297;SDS011;18782;48.984;8.548;2023-07-29T13:39:10;1.00;;;0.77;;
32297;SDS011;18782;48.984;8.548;2023-07-29T13:41:38;1.08;;;0.52;;
32297;SDS011;18782;48.984;8.548;2023-07-29T13:44:05;1.30;;;0.88;;
32297;SDS011;18782;48.984;8.548;2023-07-29T13:46:33;2.28;;;0.93;;
32297;SDS011;18782;48.984;8.548;2023-07-29T13:49:01;1.15;;;0.70;;
32297;SDS011;18782;48.984;8.548;2023-07-29T13:51:29;1.15;;;0.80;;
32297;SDS011;18782;48.984;8.548;2023-07-29T13:53:57;1.02;;;0.68;;
32297;SDS011;18782;48.984;8.548;2023-07-29T13:56:26;1.38;;;0.70;;
32297;SDS011;18782;48.984;8.548;2023-07-29T13:58:54;1.88;;;0.60;;
32297;SDS011;18782;48.984;8.548;2023-07-29T14:01:22;2.63;;;0.60;;
32297;SDS011;18782;48.984;8.548;2023-07-29T14:03:49;1.20;;;0.85;;
32297;SDS011;18782;48.984;8.548;2023-07-29T14:06:17;1.20;;;0.60;;
32297;SDS011;18782;48.984;8.548;2023-07-29T14:08:53;1.35;;;0.70;;
32297;SDS011;18782;48.984;8.548;2023-07-29T14:11:21;1.00;;;0.60;;
32297;SDS011;18782;48.984;8.548;2023-07-29T14:13:50;1.90;;;0.80;;
32297;SDS011;18782;48.984;8.548;2023-07-29T14:16:18;1.67;;;0.63;;
32297;SDS011;18782;48.984;8.548;2023-07-29T14:18:46;2.35;;;0.70;;
32297;SDS011;18782;48.984;8.548;2023-07-29T14:21:13;1.13;;;0.63;;
32297;SDS011;18782;48.984;8.548;2023-07-29T14:23:41;1.77;;;0.70;;
32297;SDS011;18782;48.984;8.548;2023-07-29T14:26:09;1.33;;;0.70;;
32297;SDS011;18782;48.984;8.548;2023-07-29T14:28:36;1.33;;;0.82;;
32297;SDS011;18782;48.984;8.548;2023-07-29T14:31:06;0.82;;;0.70;;
32297;SDS011;18782;48.984;8.548;2023-07-29T14:33:34;1.10;;;0.77;;
32297;SDS011;18782;48.984;8.548;2023-07-29T14:36:01;1.52;;;0.90;;
32297;SDS011;18782;48.984;8.548;2023-07-29T14:38:29;0.95;;;0.68;;
32297;SDS011;18782;48.984;8.548;2023-07-29T14:40:57;1.10;;;0.70;;
32297;SDS011;18782;48.984;8.548;2023-07-29T14:43:25;2.08;;;1.13;;
32297;SDS011;18782;48.984;8.548;2023-07-29T14:45:53;1.52;;;0.85;;
32297;SDS011;18782;48.984;8.548;2023-07-29T14:48:22;1.88;;;0.93;;
32297;SDS011;18782;48.984;8.548;2023-07-29T14:50:50;1.05;;;0.75;;
32297;SDS011;18782;48.984;8.548;2023-07-29T14:53:18;1.38;;;0.88;;
32297;SDS011;18782;48.984;8.548;2023-07-29T14:55:46;2.10;;;0.80;;
32297;SDS011;18782;48.984;8.548;2023-07-29T14:58:14;1.30;;;1.00;;
32297;SDS011;18782;48.984;8.548;2023-07-29T15:00:42;1.23;;;0.70;;
32297;SDS011;18782;48.984;8.548;2023-07-29T15:03:09;1.00;;;0.90;;
32297;SDS011;18782;48.984;8.548;2023-07-29T15:05:39;1.92;;;0.75;;
32297;SDS011;18782;48.984;8.548;2023-07-29T15:08:07;1.20;;;1.00;;
32297;SDS011;18782;48.984;8.548;2023-07-29T15:10:35;1.77;;;1.08;;
32297;SDS011;18782;48.984;8.548;2023-07-29T15:13:02;2.03;;;0.80;;